LFYD weather

CLOSED Damblain Air Base
Damblain, Lorraine, France

Public forecast

Using degrees Celsius for public forecast. Weather courtesy of forecast.io.

METAR (pilot weather report)

Closest report is Épinal-Mirecourt Airport, 21.7 nm (40.1 km) NE. Retrieved 2019/07/18 01:30 UTC (30 minutes ago):

LFSG 180130Z AUTO 20004KT CAVOK 14/08 Q1013

TAF (pilot weather forecast)

Forecast is more than 6 hours old.

Closest forecast is Nancy-Ochey (BA 133) Air Base, 32.0 nm (59.3 km) NNE. Retrieved 2019/07/17 15:09 UTC (11 hours ago):

TAF LFSO 171400Z 1715/1815 30010KT CAVOK BECMG 1808/1810 23010KT PROB30 TEMPO 1812/1815 29010G20KT -SHRA SCT080TCU